createdAt,value
2019-04-14T00:00:11.919Z,96906.28
2019-04-14T00:02:55.511Z,96906.71
2019-04-14T00:05:28.824Z,96896.61
2019-04-14T00:08:02.436Z,96897.23
2019-04-14T00:10:35.500Z,96897.81
2019-04-14T00:13:07.453Z,96896.72
2019-04-14T00:15:45.077Z,96897.66
2019-04-14T00:18:14.276Z,96891.34
2019-04-14T00:20:46.938Z,96884.47
2019-04-14T00:23:19.501Z,96881.83
2019-04-14T00:25:52.421Z,96881.75
2019-04-14T00:28:25.004Z,96875.66
2019-04-14T00:30:57.699Z,96878.28
2019-04-14T00:33:30.227Z,96872.33
2019-04-14T00:36:08.779Z,96881.64
2019-04-14T00:38:45.996Z,96885.30
2019-04-14T00:41:43.913Z,96869.84
2019-04-14T00:44:21.064Z,96879.57
2019-04-14T00:47:02.858Z,96875.83
2019-04-14T00:49:35.819Z,96879.57
2019-04-14T00:52:10.005Z,96878.40
2019-04-14T00:54:45.657Z,96876.54
2019-04-14T00:57:18.100Z,96877.34
2019-04-14T00:59:51.277Z,96880.72
2019-04-14T01:02:25.041Z,96878.98
2019-04-14T01:04:57.679Z,96877.44
2019-04-14T01:07:32.754Z,96872.28
2019-04-14T01:10:06.049Z,96875.70
2019-04-14T01:12:40.926Z,96872.09
2019-04-14T01:15:13.721Z,96868.20
2019-04-14T01:17:46.481Z,96868.66
2019-04-14T01:20:21.135Z,96857.98
2019-04-14T01:22:53.406Z,96857.83
2019-04-14T01:25:28.578Z,96857.69
2019-04-14T01:28:02.704Z,96855.95
2019-04-14T01:30:37.218Z,96858.56
2019-04-14T01:33:11.906Z,96851.82
2019-04-14T01:35:46.722Z,96848.64
2019-04-14T01:38:19.562Z,96844.55
2019-04-14T01:40:53.154Z,96843.08
2019-04-14T01:43:25.662Z,96837.87
2019-04-14T01:46:07.797Z,96845.28
2019-04-14T01:48:34.601Z,96836.91
2019-04-14T01:51:25.035Z,96834.99
2019-04-14T01:54:17.159Z,96834.80
2019-04-14T01:57:15.373Z,96841.34
2019-04-14T01:59:48.231Z,96835.97
2019-04-14T02:02:24.916Z,96834.53
2019-04-14T02:04:57.892Z,96839.34
2019-04-14T02:07:32.198Z,96840.86
2019-04-14T02:10:04.479Z,96845.13
2019-04-14T02:12:38.932Z,96840.70
2019-04-14T02:15:11.270Z,96838.66
2019-04-14T02:17:46.142Z,96835.63
2019-04-14T02:20:18.603Z,96831.92
2019-04-14T02:22:53.161Z,96830.64
2019-04-14T02:25:29.607Z,96825.69
2019-04-14T02:28:02.313Z,96827.27
2019-04-14T02:30:41.612Z,96824.36
2019-04-14T02:33:39.040Z,96829.13
2019-04-14T02:36:14.557Z,96825.64
2019-04-14T02:41:33.702Z,96830.98
2019-04-14T02:44:09.696Z,96823.11
2019-04-14T02:46:39.834Z,96825.69
2019-04-14T02:49:14.351Z,96828.52
2019-04-14T02:51:40.101Z,96827.12
2019-04-14T02:56:58.433Z,96823.67
2019-04-14T02:59:27.191Z,96825.19
2019-04-14T03:02:14.078Z,96818.98
2019-04-14T03:04:35.621Z,96824.20
2019-04-14T03:07:15.930Z,96820.80
2019-04-14T03:12:28.016Z,96816.18
2019-04-14T03:15:03.644Z,96811.98
2019-04-14T03:20:31.888Z,96814.22
2019-04-14T03:23:19.151Z,96813.27
2019-04-14T03:25:49.468Z,96814.10
2019-04-14T03:28:36.658Z,96817.44
2019-04-14T03:31:25.953Z,96819.82
2019-04-14T03:34:05.261Z,96818.80
2019-04-14T03:38:52.953Z,96822.50
2019-04-14T03:43:50.811Z,96826.45
2019-04-14T03:46:36.293Z,96828.26
2019-04-14T03:51:44.528Z,96834.34
2019-04-14T03:54:03.732Z,96834.42
2019-04-14T03:56:55.477Z,96842.41
2019-04-14T03:59:28.202Z,96848.99
2019-04-14T04:02:00.884Z,96850.12
2019-04-14T04:04:34.457Z,96854.44
2019-04-14T04:07:06.322Z,96853.84
2019-04-14T04:10:03.009Z,96856.67
2019-04-14T04:12:35.758Z,96859.59
2019-04-14T04:15:08.407Z,96849.03
2019-04-14T04:18:05.031Z,96846.64
2019-04-14T04:20:54.540Z,96848.13
2019-04-14T04:23:42.462Z,96844.27
2019-04-14T04:26:36.630Z,96845.02
2019-04-14T04:29:20.563Z,96846.31
2019-04-14T04:32:06.151Z,96846.64
2019-04-14T04:34:53.725Z,96848.42
2019-04-14T04:37:48.087Z,96844.72
2019-04-14T04:40:24.601Z,96848.13
2019-04-14T04:42:56.972Z,96845.02
2019-04-14T04:45:30.003Z,96844.45
2019-04-14T04:48:02.608Z,96845.73
2019-04-14T04:50:34.726Z,96847.52
2019-04-14T04:53:06.937Z,96853.12
2019-04-14T04:55:40.105Z,96845.97
2019-04-14T04:58:12.165Z,96853.80
2019-04-14T05:00:48.602Z,96849.83
2019-04-14T05:03:21.123Z,96850.54
2019-04-14T05:06:28.764Z,96851.38
2019-04-14T05:09:07.966Z,96843.65
2019-04-14T05:11:50.846Z,96845.81
2019-04-14T05:14:30.875Z,96843.84
2019-04-14T05:17:03.686Z,96840.66
2019-04-14T05:19:37.830Z,96833.36
2019-04-14T05:22:09.279Z,96837.56
2019-04-14T05:24:41.861Z,96836.95
2019-04-14T05:27:14.598Z,96840.02
2019-04-14T05:29:47.233Z,96836.16
2019-04-14T05:32:19.469Z,96836.84
2019-04-14T05:34:52.174Z,96839.22
2019-04-14T05:37:26.794Z,96840.17
2019-04-14T05:39:59.384Z,96835.55
2019-04-14T05:42:31.945Z,96842.17
2019-04-14T05:45:04.498Z,96845.53
2019-04-14T05:47:37.134Z,96844.22
2019-04-14T05:50:13.672Z,96843.73
2019-04-14T05:52:47.084Z,96849.44
2019-04-14T05:55:19.870Z,96848.98
2019-04-14T05:57:52.519Z,96851.55
2019-04-14T06:00:25.618Z,96846.56
2019-04-14T06:02:59.524Z,96854.44
2019-04-14T06:05:33.999Z,96852.66
2019-04-14T06:08:06.243Z,96848.26
2019-04-14T06:10:38.547Z,96851.74
2019-04-14T06:13:11.894Z,96855.03
2019-04-14T06:15:48.354Z,96852.47
2019-04-14T06:18:20.126Z,96860.26
2019-04-14T06:20:54.812Z,96854.84
2019-04-14T06:23:27.384Z,96861.81
2019-04-14T06:25:59.505Z,96862.53
2019-04-14T06:28:31.869Z,96867.52
2019-04-14T06:31:23.029Z,96858.86
2019-04-14T06:34:12.294Z,96868.24
2019-04-14T06:36:51.004Z,96863.81
2019-04-14T06:39:29.501Z,96869.11
2019-04-14T06:42:01.380Z,96864.09
2019-04-14T06:44:36.404Z,96866.38
2019-04-14T06:47:08.495Z,96861.69
2019-04-14T06:49:48.760Z,96871.45
2019-04-14T06:52:14.032Z,96867.36
2019-04-14T06:54:45.942Z,96867.25
2019-04-14T06:57:18.123Z,96870.89
2019-04-14T06:59:50.073Z,96872.25
2019-04-14T07:02:22.281Z,96875.73
2019-04-14T07:04:54.016Z,96872.45
2019-04-14T07:07:25.858Z,96880.16
2019-04-14T07:09:57.649Z,96881.11
2019-04-14T07:12:29.492Z,96883.75
2019-04-14T07:15:03.750Z,96886.66
2019-04-14T07:17:36.265Z,96889.02
2019-04-14T07:20:09.143Z,96892.57
2019-04-14T07:22:41.543Z,96892.27
2019-04-14T07:25:13.900Z,96893.19
2019-04-14T07:27:48.014Z,96890.53
2019-04-14T07:30:41.650Z,96893.41
2019-04-14T07:33:32.784Z,96894.61
2019-04-14T07:36:30.973Z,96899.00
2019-04-14T07:39:22.218Z,96898.47
2019-04-14T07:42:19.511Z,96896.52
2019-04-14T07:45:05.469Z,96897.67
2019-04-14T07:47:46.998Z,96891.02
2019-04-14T07:50:37.006Z,96890.86
2019-04-14T07:53:37.528Z,96896.00
2019-04-14T07:56:19.684Z,96897.02
2019-04-14T07:59:09.129Z,96901.53
2019-04-14T08:02:01.640Z,96894.45
2019-04-14T08:04:48.565Z,96894.61
2019-04-14T08:07:35.977Z,96896.73
2019-04-14T08:10:12.494Z,96889.28
2019-04-14T08:12:56.179Z,96895.03
2019-04-14T08:15:33.843Z,96887.77
2019-04-14T08:18:10.881Z,96884.18
2019-04-14T08:20:46.561Z,96884.18
2019-04-14T08:23:23.473Z,96885.95
2019-04-14T08:25:59.752Z,96889.89
2019-04-14T08:28:36.741Z,96878.31
2019-04-14T08:31:09.435Z,96878.23
2019-04-14T08:33:43.644Z,96878.23
2019-04-14T08:36:20.299Z,96876.73
2019-04-14T08:38:52.966Z,96877.52
2019-04-14T08:41:28.369Z,96876.58
2019-04-14T08:44:33.781Z,96874.16
2019-04-14T08:47:18.766Z,96872.42
2019-04-14T08:50:03.246Z,96873.25
2019-04-14T08:53:04.454Z,96871.85
2019-04-14T08:56:00.933Z,96882.03
2019-04-14T08:58:52.934Z,96876.28
2019-04-14T09:01:42.955Z,96873.25
2019-04-14T09:04:31.182Z,96874.88
2019-04-14T09:07:18.082Z,96872.30
2019-04-14T09:10:30.190Z,96881.16
2019-04-14T09:13:10.901Z,96875.86
2019-04-14T09:15:47.533Z,96869.88
2019-04-14T09:18:53.713Z,96878.73
2019-04-14T09:21:46.093Z,96875.59
2019-04-14T09:30:36.982Z,96869.27
2019-04-14T09:33:38.009Z,96876.58
2019-04-14T09:36:58.497Z,96873.85
2019-04-14T09:49:34.748Z,96870.33
2019-04-14T09:55:46.277Z,96869.95
2019-04-14T09:58:36.400Z,96872.14
2019-04-14T10:05:03.000Z,96874.30
2019-04-14T10:07:49.344Z,96880.62
2019-04-14T10:10:44.605Z,96873.89
2019-04-14T10:13:43.635Z,96883.27
2019-04-14T10:16:32.608Z,96880.73
2019-04-14T10:19:24.138Z,96884.24
2019-04-14T10:22:13.722Z,96882.17
2019-04-14T10:25:11.072Z,96893.25
2019-04-14T10:30:54.989Z,96886.30
2019-04-14T10:34:24.619Z,96883.99
2019-04-14T10:37:09.110Z,96889.67
2019-04-14T10:39:47.476Z,96888.84
2019-04-14T10:42:42.953Z,96887.89
2019-04-14T10:45:21.517Z,96890.02
2019-04-14T10:48:02.737Z,96892.77
2019-04-14T10:50:38.677Z,96900.00
2019-04-14T10:53:23.470Z,96894.59
2019-04-14T10:56:30.034Z,96898.67
2019-04-14T10:59:11.401Z,96900.12
2019-04-14T11:01:59.256Z,96901.59
2019-04-14T11:04:49.719Z,96908.55
2019-04-14T11:07:33.161Z,96906.77
2019-04-14T11:10:13.333Z,96911.77
2019-04-14T11:12:58.866Z,96915.41
2019-04-14T11:15:42.397Z,96914.63
2019-04-14T11:18:14.489Z,96921.48
2019-04-14T11:20:48.837Z,96924.77
2019-04-14T11:23:21.125Z,96925.00
2019-04-14T11:25:53.184Z,96928.06
2019-04-14T11:28:25.122Z,96925.59
2019-04-14T11:30:57.549Z,96930.93
2019-04-14T11:33:54.856Z,96930.93
2019-04-14T11:36:45.334Z,96935.31
2019-04-14T11:39:18.211Z,96935.36
2019-04-14T11:41:52.840Z,96939.06
2019-04-14T11:44:27.435Z,96936.72
2019-04-14T11:47:00.029Z,96938.88
2019-04-14T11:49:36.141Z,96931.16
2019-04-14T11:52:12.359Z,96938.58
2019-04-14T11:54:49.910Z,96936.19
2019-04-14T11:57:24.384Z,96932.91
2019-04-14T12:00:28.613Z,96929.73
2019-04-14T12:03:26.536Z,96926.89
2019-04-14T12:06:20.437Z,96930.94
2019-04-14T12:09:23.155Z,96931.77
2019-04-14T12:11:58.172Z,96883.61
2019-04-14T12:14:32.220Z,96931.43
2019-04-14T12:17:11.391Z,96930.14
2019-04-14T12:19:49.352Z,96931.28
2019-04-14T12:22:27.427Z,96926.12
2019-04-14T12:25:02.966Z,96927.65
2019-04-14T12:27:41.993Z,96933.62
2019-04-14T12:30:31.233Z,96930.90
2019-04-14T12:33:14.186Z,96936.45
2019-04-14T12:35:47.558Z,96928.22
2019-04-14T12:38:21.512Z,96927.08
2019-04-14T12:40:58.946Z,96926.78
2019-04-14T12:43:45.886Z,96925.23
2019-04-14T12:46:47.945Z,96923.75
2019-04-14T12:49:27.993Z,96928.90
2019-04-14T12:52:22.595Z,96927.04
2019-04-14T12:54:58.141Z,96919.88
2019-04-14T12:57:42.419Z,96920.41
2019-04-14T13:00:44.922Z,96915.08
2019-04-14T13:03:17.044Z,96915.00
2019-04-14T13:05:51.125Z,96914.40
2019-04-14T13:08:24.960Z,96915.98
2019-04-14T13:11:15.420Z,96916.33
2019-04-14T13:13:53.836Z,96918.08
2019-04-14T13:16:39.741Z,96919.47
2019-04-14T13:19:15.589Z,96918.78
2019-04-14T13:21:50.620Z,96913.07
2019-04-14T13:24:28.462Z,96916.28
2019-04-14T13:27:03.261Z,96914.77
2019-04-14T13:29:43.034Z,96921.73
2019-04-14T13:32:17.482Z,96926.59
2019-04-14T13:35:04.824Z,96928.84
2019-04-14T13:37:39.057Z,96930.63
2019-04-14T13:40:22.994Z,96929.58
2019-04-14T13:43:04.117Z,96932.80
2019-04-14T13:45:46.613Z,96944.77
2019-04-14T13:48:20.248Z,96930.57
2019-04-14T13:50:54.697Z,96926.09
2019-04-14T13:53:29.463Z,96933.30
2019-04-14T13:56:06.359Z,96935.53
2019-04-14T13:58:43.933Z,96933.73
2019-04-14T14:01:17.904Z,96936.58
2019-04-14T14:03:53.047Z,96932.72
2019-04-14T14:06:27.317Z,96936.58
2019-04-14T14:09:01.486Z,96934.08
2019-04-14T14:11:44.394Z,96948.09
2019-04-14T14:14:27.393Z,96947.38
2019-04-14T14:17:13.989Z,96948.42
2019-04-14T14:19:57.635Z,96947.83
2019-04-14T14:22:58.397Z,96950.64
2019-04-14T14:25:28.206Z,96947.88
2019-04-14T14:28:05.595Z,96949.73
2019-04-14T14:30:39.052Z,96948.06
2019-04-14T14:33:13.012Z,96947.74
2019-04-14T14:35:48.507Z,96944.05
2019-04-14T14:38:23.742Z,96951.15
2019-04-14T14:40:59.450Z,96949.30
2019-04-14T14:43:34.322Z,96951.98
2019-04-14T14:46:33.256Z,96950.42
2019-04-14T14:49:22.031Z,96942.49
2019-04-14T14:52:05.874Z,96950.77
2019-04-14T14:54:40.099Z,96950.97
2019-04-14T14:57:13.628Z,96961.04
2019-04-14T14:59:47.514Z,96960.85
2019-04-14T15:02:21.024Z,96959.30
2019-04-14T15:05:00.638Z,96958.84
2019-04-14T15:07:35.604Z,96964.01
2019-04-14T15:10:11.123Z,96961.55
2019-04-14T15:12:48.285Z,96959.42
2019-04-14T15:15:22.588Z,96961.55
2019-04-14T15:17:57.111Z,96965.23
2019-04-14T15:20:36.871Z,96963.80
2019-04-14T15:23:10.987Z,96967.17
2019-04-14T15:25:57.224Z,96961.95
2019-04-14T15:28:32.179Z,96965.72
2019-04-14T15:31:07.897Z,96966.10
2019-04-14T15:33:42.283Z,96966.00
2019-04-14T15:36:19.882Z,96961.41
2019-04-14T15:38:54.708Z,96964.36
2019-04-14T15:41:29.109Z,96967.66
2019-04-14T15:44:08.015Z,96964.92
2019-04-14T15:46:45.514Z,96965.83
2019-04-14T15:49:20.016Z,96964.00
2019-04-14T15:51:53.971Z,96965.05
2019-04-14T15:54:28.436Z,96966.23
2019-04-14T15:57:16.335Z,96968.06
2019-04-14T16:00:10.454Z,96963.75
2019-04-14T16:02:55.185Z,96968.63
2019-04-14T16:05:46.190Z,96972.03
2019-04-14T16:08:30.700Z,96977.18
2019-04-14T16:11:32.862Z,96972.77
2019-04-14T16:14:24.995Z,96979.23
2019-04-14T16:17:20.608Z,96979.96
2019-04-14T16:20:18.199Z,96987.12
2019-04-14T16:22:53.763Z,96979.96
2019-04-14T16:26:08.950Z,96978.85
2019-04-14T16:28:52.766Z,96978.30
2019-04-14T16:31:48.012Z,96988.78
2019-04-14T16:34:29.865Z,96992.81
2019-04-14T16:37:05.090Z,96992.44
2019-04-14T16:39:42.700Z,96995.38
2019-04-14T16:42:18.529Z,97001.63
2019-04-14T16:44:53.832Z,97000.97
2019-04-14T16:47:28.654Z,97000.97
2019-04-14T16:50:05.037Z,97009.52
2019-04-14T16:52:54.646Z,97001.42
2019-04-14T16:55:35.364Z,97011.91
2019-04-14T16:58:21.854Z,97012.27
2019-04-14T17:01:04.540Z,97010.00
2019-04-14T17:03:38.614Z,97015.59
2019-04-14T17:06:12.064Z,97017.05
2019-04-14T17:08:45.925Z,97021.91
2019-04-14T17:11:20.660Z,97018.88
2019-04-14T17:14:23.018Z,97023.46
2019-04-14T17:17:20.443Z,97027.15
2019-04-14T17:20:04.489Z,97028.81
2019-04-14T17:23:02.158Z,97029.36
2019-04-14T17:25:49.188Z,97033.95
2019-04-14T17:28:37.488Z,97036.97
2019-04-14T17:31:22.817Z,97039.27
2019-04-14T17:34:15.410Z,97041.65
2019-04-14T17:37:03.823Z,97045.22
2019-04-14T17:39:51.174Z,97052.65
2019-04-14T17:42:47.535Z,97051.20
2019-04-14T17:45:42.716Z,97053.38
2019-04-14T17:48:56.877Z,97055.59
2019-04-14T17:51:39.913Z,97056.13
2019-04-14T17:54:43.115Z,97060.64
2019-04-14T17:57:34.863Z,97062.94
2019-04-14T18:00:28.962Z,97064.74
2019-04-14T18:03:18.801Z,97070.98
2019-04-14T18:05:55.761Z,97073.75
2019-04-14T18:08:59.754Z,97073.20
2019-04-14T18:11:52.080Z,97075.31
2019-04-14T18:14:45.813Z,97082.53
2019-04-14T18:17:51.767Z,97084.02
2019-04-14T18:20:33.448Z,97079.98
2019-04-14T18:23:07.897Z,97086.20
2019-04-14T18:25:41.306Z,97085.38
2019-04-14T18:28:35.382Z,97089.23
2019-04-14T18:31:38.805Z,97092.98
2019-04-14T18:34:35.572Z,97090.60
2019-04-14T18:37:43.808Z,97087.84
2019-04-14T18:40:33.064Z,97094.74
2019-04-14T18:43:21.173Z,97093.55
2019-04-14T18:46:06.988Z,97100.14
2019-04-14T18:49:04.194Z,97100.52
2019-04-14T18:51:56.374Z,97099.61
2019-04-14T18:55:03.073Z,97100.19
2019-04-14T18:58:13.160Z,97098.91
2019-04-14T19:00:54.127Z,97100.27
2019-04-14T19:03:28.991Z,97094.43
2019-04-14T19:06:05.645Z,97055.16
2019-04-14T19:08:40.164Z,97097.00
2019-04-14T19:11:52.649Z,97085.35
2019-04-14T19:14:31.917Z,97081.95
2019-04-14T19:17:33.834Z,97081.57
2019-04-14T19:20:08.727Z,97082.50
2019-04-14T19:22:45.950Z,97082.98
2019-04-14T19:25:20.278Z,97084.72
2019-04-14T19:27:54.890Z,97082.41
2019-04-14T19:30:30.048Z,97083.88
2019-04-14T19:33:04.480Z,97087.27
2019-04-14T19:35:41.213Z,97082.34
2019-04-14T19:38:17.521Z,97079.38
2019-04-14T19:40:51.704Z,97085.26
2019-04-14T19:43:30.149Z,97085.61
2019-04-14T19:46:06.307Z,97087.45
2019-04-14T19:48:40.303Z,97090.59
2019-04-14T19:51:15.057Z,97086.92
2019-04-14T19:53:48.591Z,97094.34
2019-04-14T19:56:23.070Z,97090.94
2019-04-14T19:58:57.722Z,97089.66
2019-04-14T20:01:32.568Z,97092.61
2019-04-14T20:04:07.047Z,97093.98
2019-04-14T20:06:44.125Z,97097.16
2019-04-14T20:09:18.744Z,97094.59
2019-04-14T20:11:53.560Z,97094.05
2019-04-14T20:14:30.127Z,97098.73
2019-04-14T20:17:13.243Z,97106.73
2019-04-14T20:20:08.266Z,97107.44
2019-04-14T20:22:59.677Z,97105.98
2019-04-14T20:25:51.046Z,97108.17
2019-04-14T20:28:43.762Z,97110.67
2019-04-14T20:31:46.353Z,97107.37
2019-04-14T20:34:19.879Z,97114.59
2019-04-14T20:36:54.312Z,97114.94
2019-04-14T20:39:28.910Z,97116.61
2019-04-14T20:42:02.107Z,97120.47
2019-04-14T20:44:36.633Z,97116.88
2019-04-14T20:47:11.804Z,97119.98
2019-04-14T20:49:46.906Z,97128.91
2019-04-14T20:52:28.270Z,97124.67
2019-04-14T20:55:07.890Z,97123.03
2019-04-14T20:57:42.585Z,97120.20
2019-04-14T21:00:20.624Z,97128.64
2019-04-14T21:03:30.587Z,97129.09
2019-04-14T21:06:20.927Z,97123.58
2019-04-14T21:09:19.697Z,97116.88
2019-04-14T21:12:01.797Z,97126.79
2019-04-14T21:15:07.689Z,97128.17
2019-04-14T21:17:52.622Z,97128.27
2019-04-14T21:20:37.090Z,97134.78
2019-04-14T21:23:22.763Z,97135.67
2019-04-14T21:26:14.975Z,97141.55
2019-04-14T21:29:12.360Z,97140.27
2019-04-14T21:32:09.222Z,97145.88
2019-04-14T21:35:11.945Z,97143.77
2019-04-14T21:38:08.010Z,97143.37
2019-04-14T21:40:58.132Z,97149.45
2019-04-14T21:43:34.025Z,97144.66
2019-04-14T21:46:08.253Z,97142.09
2019-04-14T21:48:42.033Z,97144.85
2019-04-14T21:51:16.958Z,97148.16
2019-04-14T21:53:50.738Z,97140.75
2019-04-14T21:56:34.661Z,97147.07
2019-04-14T21:59:19.595Z,97141.30
2019-04-14T22:02:13.002Z,97144.50
2019-04-14T22:05:21.786Z,97144.95
2019-04-14T22:08:13.336Z,97139.72
2019-04-14T22:10:55.366Z,97144.50
2019-04-14T22:13:29.829Z,97139.88
2019-04-14T22:16:04.419Z,97142.34
2019-04-14T22:18:39.445Z,97142.28
2019-04-14T22:21:14.377Z,97151.08
2019-04-14T22:24:00.365Z,97147.77
2019-04-14T22:26:26.403Z,97146.84
2019-04-14T22:29:02.634Z,97149.80
2019-04-14T22:31:38.962Z,97143.92
2019-04-14T22:34:14.388Z,97148.90
2019-04-14T22:36:48.353Z,97146.74
2019-04-14T22:39:21.693Z,97151.43
2019-04-14T22:41:59.018Z,97143.98
2019-04-14T22:44:32.582Z,97148.58
2019-04-14T22:47:05.465Z,97146.88
2019-04-14T22:49:41.558Z,97147.68
2019-04-14T22:52:15.241Z,97155.61
2019-04-14T22:54:56.575Z,97151.11
2019-04-14T22:57:31.970Z,97148.52
2019-04-14T23:00:11.135Z,97148.70
2019-04-14T23:03:05.061Z,97142.83
2019-04-14T23:06:03.795Z,97140.45
2019-04-14T23:08:52.261Z,97139.62
2019-04-14T23:11:56.701Z,97139.53
2019-04-14T23:14:44.192Z,97137.95
2019-04-14T23:17:39.791Z,97137.60
2019-04-14T23:20:22.984Z,97133.97
2019-04-14T23:23:12.851Z,97130.60
2019-04-14T23:25:46.226Z,97132.39
2019-04-14T23:28:20.249Z,97127.95
2019-04-14T23:30:56.027Z,97131.55
2019-04-14T23:33:30.190Z,97125.53
2019-04-14T23:36:05.110Z,97122.18
2019-04-14T23:38:37.953Z,97118.88
2019-04-14T23:41:11.089Z,97118.38
2019-04-14T23:43:44.465Z,97115.09
2019-04-14T23:46:17.434Z,97126.38
2019-04-14T23:48:50.708Z,97117.34
2019-04-14T23:51:24.238Z,97120.80
2019-04-14T23:53:57.224Z,97115.58
2019-04-14T23:56:30.916Z,97118.43
2019-04-14T23:59:05.220Z,97122.03
